Time;durP1;ratioP1;P1;durP2;ratioP2;P2;SDS_P1;SDS_P2;PMS_P1;PMS_P2;Temp;Humidity;BMP_temperature;BMP_pressure;BME280_temperature;BME280_humidity;BME280_pressure;Samples;Min_cycle;Max_cycle;Signal;HPM_P1;HPM_P2
2022/08/26 00:00:03;;;;;;;6.78;1.90;;;;;;;25.03;53.86;101697.47;5053551;28;21173;-86
2022/08/26 00:07:35;;;;;;;5.70;2.08;;;;;;;25.08;53.39;101694.69;5079359;28;20036;-86
2022/08/26 00:10:21;;;;;;;6.15;2.08;;;;;;;25.04;53.61;101704.47;5073488;28;20123;-87
2022/08/26 00:12:47;;;;;;;7.22;1.88;;;;;;;25.03;53.98;101697.47;5078437;28;20066;-86
2022/08/26 00:20:34;;;;;;;8.35;2.05;;;;;;;25.05;53.65;101705.31;5081745;28;20040;-87
2022/08/26 00:23:19;;;;;;;;;;;;;;;;;;;;;
2022/08/26 00:25:45;;;;;;;6.88;2.13;;;;;;;25.06;53.38;101707.03;5081924;28;20041;-86
2022/08/26 00:28:13;;;;;;;8.10;2.15;;;;;;;25.08;53.46;101707.88;5037849;28;20148;-84
2022/08/26 00:30:42;;;;;;;7.68;2.30;;;;;;;25.05;53.88;101705.31;5039131;28;20069;-86
2022/08/26 00:33:08;;;;;;;6.80;1.98;;;;;;;25.05;53.68;101710.59;5051421;28;20080;-86
2022/08/26 00:38:05;;;;;;;5.13;1.73;;;;;;;25.06;53.53;101712.31;5077915;28;20118;-86
2022/08/26 00:43:05;;;;;;;6.60;1.88;;;;;;;25.05;53.49;101714.09;5070127;28;20056;-85
2022/08/26 00:48:03;;;;;;;4.63;1.77;;;;;;;25.04;53.58;101716.75;5066066;28;21495;-86
2022/08/26 00:50:36;;;;;;;5.38;1.80;;;;;;;25.03;53.59;101712.41;5043668;28;20495;-86
2022/08/26 00:53:20;;;;;;;6.90;1.73;;;;;;;25.03;53.62;101708.00;5051173;28;20049;-86
2022/08/26 00:55:58;;;;;;;7.80;1.80;;;;;;;25.03;53.87;101704.50;5043928;28;20135;-86
2022/08/26 00:58:26;;;;;;;9.30;1.60;;;;;;;25.05;53.83;101698.28;5053963;28;20422;-85
2022/08/26 01:00:55;;;;;;;4.05;1.55;;;;;;;25.07;53.60;101695.63;5040239;28;20048;-85
2022/08/26 01:03:26;;;;;;;6.43;1.60;;;;;;;25.05;53.53;101694.78;5065131;28;20518;-78
2022/08/26 01:05:56;;;;;;;6.57;1.70;;;;;;;25.07;53.73;101700.03;5069770;28;20407;-79
2022/08/26 01:08:23;;;;;;;5.60;1.60;;;;;;;25.03;53.94;101700.09;5050103;28;20129;-77
2022/08/26 01:10:48;;;;;;;5.80;1.35;;;;;;;25.03;53.88;101699.22;5043415;28;20048;-77
2022/08/26 01:13:14;;;;;;;6.85;1.42;;;;;;;25.01;53.81;101703.69;5042919;28;20068;-79
2022/08/26 01:15:46;;;;;;;6.00;1.50;;;;;;;25.00;53.81;101700.19;5037479;28;20048;-77
2022/08/26 01:18:13;;;;;;;6.07;1.60;;;;;;;25.01;53.83;101691.38;5062217;28;20111;-79
2022/08/26 01:21:11;;;;;;;6.68;1.67;;;;;;;25.03;53.67;101707.13;5042446;28;20053;-79
2022/08/26 01:26:07;;;;;;;5.32;1.50;;;;;;;25.03;53.65;101697.47;5064218;28;20114;-79
2022/08/26 01:28:34;;;;;;;5.72;1.40;;;;;;;25.01;53.58;101704.53;5073553;28;20051;-79
2022/08/26 01:31:02;;;;;;;4.55;1.52;;;;;;;24.99;53.76;101693.19;5039142;28;20076;-79
2022/08/26 01:36:02;;;;;;;5.20;1.88;;;;;;;25.01;53.65;101704.53;5083672;28;20296;-78
2022/08/26 01:38:27;;;;;;;6.05;1.50;;;;;;;25.00;53.51;101705.47;5046491;28;20056;-77
2022/08/26 01:40:53;;;;;;;5.97;1.67;;;;;;;24.98;54.01;101711.66;4991645;28;1135838;-77
2022/08/26 01:43:21;;;;;;;5.50;1.67;;;;;;;25.01;53.77;101717.69;5047145;28;20055;-79
2022/08/26 02:09:05;;;;;;;5.45;1.60;;;;;;;24.97;53.81;101713.41;5715720;23;20101;-77
2022/08/26 02:11:32;;;;;;;7.97;1.63;;;;;;;25.02;53.46;101718.56;5002220;28;20081;-77
2022/08/26 02:14:02;;;;;;;5.93;1.70;;;;;;;25.00;53.39;101715.13;4981762;28;20058;-78
2022/08/26 02:16:32;;;;;;;4.38;1.48;;;;;;;25.01;53.67;101722.09;5002219;28;20054;-77
2022/08/26 02:19:00;;;;;;;5.35;1.60;;;;;;;24.97;53.88;101717.81;5019950;28;20061;-78
2022/08/26 02:21:25;;;;;;;4.68;1.25;;;;;;;24.97;53.55;101716.06;4991306;28;20050;-77
2022/08/26 02:23:51;;;;;;;4.75;1.58;;;;;;;25.00;53.38;101713.34;4984545;28;20138;-77
2022/08/26 02:26:20;;;;;;;5.90;1.65;;;;;;;24.99;53.38;101716.03;4984050;28;20058;-76
2022/08/26 02:28:55;;;;;;;6.78;1.67;;;;;;;24.97;53.13;101717.81;4997565;28;20053;-77
2022/08/26 02:31:21;;;;;;;6.22;1.50;;;;;;;24.97;53.27;101716.06;5003594;28;20061;-77
2022/08/26 02:33:46;;;;;;;5.95;1.70;;;;;;;24.98;53.61;101723.06;4984717;28;20045;-77
2022/08/26 02:36:17;;;;;;;5.03;1.48;;;;;;;25.00;53.08;101723.03;4986721;28;20069;-77
2022/08/26 02:38:42;;;;;;;4.38;1.50;;;;;;;24.98;53.19;101716.94;5000752;28;20073;-78
2022/08/26 02:41:08;;;;;;;6.10;1.45;;;;;;;24.96;53.31;101711.69;4968670;28;20094;-77
2022/08/26 02:43:34;;;;;;;4.90;1.55;;;;;;;24.95;53.34;101720.50;4990132;28;20050;-77
2022/08/26 02:46:00;;;;;;;5.95;1.75;;;;;;;24.94;53.18;101708.25;4997329;28;20477;-77
2022/08/26 02:48:25;;;;;;;4.28;1.63;;;;;;;24.94;53.47;101710.88;4981395;28;20077;-78
2022/08/26 02:50:51;;;;;;;6.75;1.70;;;;;;;24.92;53.46;101707.41;4999745;28;20058;-78
2022/08/26 02:53:19;;;;;;;5.68;1.70;;;;;;;24.94;53.49;101710.88;5018687;28;20115;-77
2022/08/26 02:55:48;;;;;;;5.75;1.73;;;;;;;24.94;53.14;101707.38;5012933;28;20096;-78
2022/08/26 02:58:14;;;;;;;4.60;1.40;;;;;;;24.95;53.07;101704.69;5012779;28;20056;-78
2022/08/26 03:00:39;;;;;;;4.50;1.35;;;;;;;24.97;53.37;101709.94;5011856;28;20045;-78
2022/08/26 03:03:05;;;;;;;5.10;1.67;;;;;;;24.98;53.21;101701.13;5012377;28;20402;-77
2022/08/26 03:05:30;;;;;;;5.53;1.50;;;;;;;24.96;52.97;101700.31;5009199;28;20514;-77
2022/08/26 03:07:56;;;;;;;3.63;1.50;;;;;;;24.96;53.10;101702.94;4979671;28;20074;-77
2022/08/26 03:10:21;;;;;;;4.20;1.52;;;;;;;24.95;53.15;101699.44;5014845;28;20096;-77
2022/08/26 03:12:47;;;;;;;5.35;1.60;;;;;;;24.97;52.72;101704.66;4994614;28;20132;-77
2022/08/26 03:15:15;;;;;;;3.90;1.48;;;;;;;24.99;52.90;101702.84;5033372;28;20045;-78
2022/08/26 03:17:41;;;;;;;3.40;1.40;;;;;;;24.96;52.96;101701.16;5014313;28;20053;-78
2022/08/26 03:20:08;;;;;;;4.40;1.40;;;;;;;24.96;52.97;101711.69;4999000;28;20037;-78
2022/08/26 03:22:34;;;;;;;5.95;1.50;;;;;;;24.97;52.81;101702.03;4999631;28;20053;-78
2022/08/26 03:25:00;;;;;;;6.28;1.50;;;;;;;24.95;53.05;101703.84;4997084;28;20060;-78
2022/08/26 03:27:25;;;;;;;5.03;1.05;;;;;;;24.94;53.00;101710.03;5015077;28;20064;-78
2022/08/26 03:32:35;;;;;;;5.35;1.20;;;;;;;24.98;52.85;101704.63;5018447;28;20156;-78
2022/08/26 03:35:00;;;;;;;5.18;1.40;;;;;;;24.98;52.81;101712.53;4996002;28;20073;-78
2022/08/26 03:37:26;;;;;;;3.00;1.50;;;;;;;24.97;52.85;101705.50;5015708;28;20065;-78
2022/08/26 03:39:51;;;;;;;4.70;1.55;;;;;;;24.98;52.63;101714.31;4998387;28;20069;-78
2022/08/26 03:42:17;;;;;;;5.20;1.30;;;;;;;24.95;52.77;101707.31;4989193;28;20117;-78
2022/08/26 03:44:42;;;;;;;7.78;1.60;;;;;;;24.96;52.78;101697.69;4989148;28;20415;-78
2022/08/26 03:47:07;;;;;;;3.35;1.10;;;;;;;24.96;52.74;101701.16;5018431;28;20201;-78
2022/08/26 03:49:34;;;;;;;4.93;1.20;;;;;;;24.95;52.37;101702.06;4999594;28;20424;-78
2022/08/26 03:52:01;;;;;;;6.03;1.17;;;;;;;24.97;52.64;101699.41;5012647;28;20069;-78
2022/08/26 03:54:26;;;;;;;4.97;1.38;;;;;;;24.97;52.72;101697.63;5032514;28;20052;-78
2022/08/26 03:56:52;;;;;;;2.70;1.15;;;;;;;24.96;52.37;101705.59;4993502;28;20054;-78
2022/08/26 03:59:21;;;;;;;3.58;1.33;;;;;;;24.93;52.77;101705.66;4995566;28;20050;-78
2022/08/26 04:01:46;;;;;;;4.20;1.30;;;;;;;24.94;52.36;101705.63;4993302;28;20045;-77
2022/08/26 04:04:11;;;;;;;5.72;1.35;;;;;;;24.93;52.67;101709.13;4995710;28;20390;-77
2022/08/26 04:06:44;;;;;;;6.50;1.35;;;;;;;24.88;52.69;101703.13;4997240;28;20097;-78
2022/08/26 04:09:13;;;;;;;4.47;1.30;;;;;;;24.87;52.48;101704.06;5023626;28;20491;-78
2022/08/26 04:11:43;;;;;;;3.58;1.30;;;;;;;24.89;52.44;101699.63;5008860;28;20054;-78
2022/08/26 04:14:15;;;;;;;3.58;1.23;;;;;;;24.90;52.52;101703.09;5040895;28;20060;-78
2022/08/26 04:16:42;;;;;;;3.55;1.30;;;;;;;24.89;52.54;101698.72;5020612;28;20057;-78
2022/08/26 04:19:09;;;;;;;4.57;1.40;;;;;;;24.87;52.67;101706.69;4996118;28;20092;-78
2022/08/26 04:21:37;;;;;;;5.25;1.20;;;;;;;24.91;52.53;101697.81;4988749;28;20061;-77
2022/08/26 04:24:02;;;;;;;6.05;1.42;;;;;;;24.91;52.22;101697.81;5024986;28;21967;-78
2022/08/26 04:26:27;;;;;;;5.95;1.45;;;;;;;24.92;52.43;101693.41;5024625;28;20117;-78
2022/08/26 04:28:54;;;;;;;4.68;1.48;;;;;;;24.89;52.55;101693.47;5003041;28;20107;-77
2022/08/26 04:31:20;;;;;;;6.72;1.10;;;;;;;24.91;51.88;101702.19;5022784;28;20060;-77
2022/08/26 04:33:47;;;;;;;5.60;1.40;;;;;;;24.91;52.15;101703.06;5003494;28;20049;-77
2022/08/26 04:36:13;;;;;;;4.25;1.30;;;;;;;24.89;51.85;101696.09;5021888;28;20120;-77
2022/08/26 04:38:39;;;;;;;5.40;1.20;;;;;;;24.90;52.02;101692.56;5006057;28;20061;-77
2022/08/26 04:41:07;;;;;;;4.28;1.50;;;;;;;24.88;51.91;101695.25;5004392;28;20059;-77
2022/08/26 04:43:32;;;;;;;5.88;1.65;;;;;;;24.90;52.09;101690.81;5006866;28;20065;-77
2022/08/26 04:46:03;;;;;;;6.57;1.48;;;;;;;24.89;51.95;101694.34;5004255;28;20061;-79
2022/08/26 04:48:31;;;;;;;5.82;1.70;;;;;;;24.89;51.68;101698.72;5005084;28;20518;-77
2022/08/26 04:51:03;;;;;;;5.90;1.70;;;;;;;24.90;52.04;101697.84;5029292;28;20029;-82
2022/08/26 05:42:27;;;;;;;21.48;3.67;;;;;;;23.81;52.97;101746.88;4947333;22;20045;-79
2022/08/26 05:44:55;;;;;;;14.68;3.70;;;;;;;23.44;53.24;101744.09;5033182;28;20045;-78
2022/08/26 05:47:20;;;;;;;27.92;5.57;;;;;;;23.17;54.65;101745.50;5018498;28;20046;-79
2022/08/26 05:49:46;;;;;;;13.32;3.13;;;;;;;23.25;53.98;101745.34;5013801;28;20433;-79
2022/08/26 05:52:15;;;;;;;12.00;3.05;;;;;;;23.26;53.72;101755.84;5016917;28;20084;-79
2022/08/26 05:59:51;;;;;;;17.40;3.53;;;;;;;23.25;53.68;101755.84;5948486;23;20058;-81
2022/08/26 06:13:07;;;;;;;14.30;2.88;;;;;;;21.76;57.78;101782.56;5840357;23;20029;-82
2022/08/26 06:15:34;;;;;;;11.30;2.83;;;;;;;21.90;57.73;101785.88;4965601;28;20062;-79
2022/08/26 06:17:59;;;;;;;10.95;2.60;;;;;;;21.64;58.31;101785.31;4977407;28;20055;-80
2022/08/26 06:20:25;;;;;;;14.13;3.60;;;;;;;21.71;58.04;101782.63;4945055;28;20405;-79
2022/08/26 06:28:02;;;;;;;11.02;2.75;;;;;;;21.81;57.68;101779.88;4971813;28;20052;-79
2022/08/26 06:30:28;;;;;;;54.92;6.85;;;;;;;21.75;58.14;101789.56;4967586;28;20081;-79
2022/08/26 06:32:53;;;;;;;33.20;5.47;;;;;;;22.12;57.48;101778.63;4941708;28;20074;-79
2022/08/26 06:35:19;;;;;;;37.90;6.32;;;;;;;22.53;56.30;101777.16;4975772;28;20508;-79
2022/08/26 06:37:44;;;;;;;50.03;6.97;;;;;;;21.56;58.03;101788.03;4978170;28;20066;-80
2022/08/26 06:40:10;;;;;;;14.27;2.75;;;;;;;21.59;58.20;101781.91;4975315;28;20047;-79
2022/08/26 06:42:36;;;;;;;16.33;2.88;;;;;;;21.86;58.23;101784.19;4976355;28;20062;-80
2022/08/26 06:45:02;;;;;;;13.38;2.72;;;;;;;22.33;56.71;101787.94;4991204;28;20990;-80
2022/08/26 06:47:28;;;;;;;10.82;2.78;;;;;;;21.78;57.74;101789.50;4988380;28;20062;-80
2022/08/26 06:49:53;;;;;;;10.00;2.20;;;;;;;21.72;58.13;101792.22;4989866;28;20050;-80
2022/08/26 06:52:19;;;;;;;10.85;2.30;;;;;;;22.42;56.22;101789.56;4961058;28;20137;-80
2022/08/26 06:54:54;;;;;;;13.20;2.13;;;;;;;22.47;55.18;101795.63;4948460;28;20061;-80
2022/08/26 06:57:20;;;;;;;10.27;2.20;;;;;;;21.67;57.71;101796.63;4968799;28;20059;-80
2022/08/26 06:59:45;;;;;;;9.82;2.95;;;;;;;21.54;58.20;101797.66;4972121;28;20053;-80
2022/08/26 07:02:14;;;;;;;60.47;6.47;;;;;;;21.24;58.83;101797.06;4988922;28;20056;-80
2022/08/26 07:04:40;;;;;;;22.55;3.17;;;;;;;21.89;57.53;101801.63;4951557;28;20507;-81
2022/08/26 07:07:05;;;;;;;12.50;3.03;;;;;;;22.07;56.90;101803.16;4959060;28;20050;-80
2022/08/26 07:09:31;;;;;;;20.13;5.45;;;;;;;;;;4966220;28;20069;-80
2022/08/26 07:11:58;;;;;;;17.63;6.03;;;;;;;21.56;58.33;101815.09;4980048;28;20058;-80
2022/08/26 07:14:30;;;;;;;14.45;3.60;;;;;;;22.16;56.70;101813.50;4961360;28;20146;-79
2022/08/26 07:16:55;;;;;;;;;;;;;;;21.18;59.72;101818.03;4810811;28;4673762;-79
2022/08/26 07:19:23;;;;;;;11.32;3.10;;;;;;;22.13;57.08;101816.19;4972257;28;20351;-79
2022/08/26 07:21:48;;;;;;;7.18;2.03;;;;;;;21.87;57.17;101813.88;4984967;28;20154;-80
2022/08/26 07:24:14;;;;;;;9.43;1.98;;;;;;;21.13;60.10;101819.84;4946384;28;20146;-79
2022/08/26 07:26:39;;;;;;;10.23;2.30;;;;;;;20.92;60.69;101829.59;4944646;28;20405;-79
2022/08/26 07:29:05;;;;;;;12.98;2.92;;;;;;;20.81;61.37;101827.94;4973887;28;20054;-79
2022/08/26 07:31:35;;;;;;;8.80;2.50;;;;;;;20.93;60.32;101827.88;4969138;28;20050;-79
2022/08/26 07:34:01;;;;;;;7.57;1.60;;;;;;;20.78;60.42;101830.59;4971480;28;20097;-78
2022/08/26 07:36:27;;;;;;;6.47;1.60;;;;;;;20.65;60.72;101835.03;4981716;28;20145;-79
2022/08/26 07:38:54;;;;;;;10.13;2.42;;;;;;;20.95;59.84;101847.03;4953775;28;20405;-79
2022/08/26 07:41:22;;;;;;;6.88;1.95;;;;;;;20.87;59.74;101847.09;4961061;28;20058;-79
2022/08/26 07:43:48;;;;;;;10.00;1.77;;;;;;;20.80;59.30;101845.41;4984464;28;20146;-79
2022/08/26 08:44:21;;;;;;;8.57;2.05;;;;;;;21.59;55.09;101855.22;5401163;23;20042;-80
2022/08/26 09:18:28;;;;;;;14.13;2.80;;;;;;;23.14;52.27;101876.84;5348788;23;20083;-77
2022/08/26 09:21:03;;;;;;;10.00;2.38;;;;;;;23.20;52.06;101868.84;4908457;29;20056;-78
2022/08/26 09:23:29;;;;;;;12.68;2.28;;;;;;;23.15;52.16;101876.81;4922240;29;20498;-78
2022/08/26 09:26:12;;;;;;;11.90;2.33;;;;;;;23.31;51.59;101872.16;4902057;29;20076;-77
2022/08/26 09:28:41;;;;;;;8.70;2.35;;;;;;;23.30;51.88;101874.81;4901995;29;20052;-79
2022/08/26 09:31:11;;;;;;;8.85;2.40;;;;;;;23.24;51.20;101867.06;4901688;29;20056;-77
2022/08/26 09:33:39;;;;;;;12.02;2.80;;;;;;;23.23;51.36;101867.94;4918357;29;20054;-79
2022/08/26 09:36:22;;;;;;;8.85;2.47;;;;;;;23.42;51.04;101864.97;4878303;29;20063;-77
2022/08/26 09:38:52;;;;;;;8.52;2.00;;;;;;;23.48;50.46;101871.88;4907878;29;20032;-82
2022/08/26 09:41:25;;;;;;;8.70;2.30;;;;;;;23.40;50.99;101864.13;4939113;29;20064;-84
2022/08/26 09:46:27;;;;;;;8.57;2.30;;;;;;;23.48;50.89;101882.38;5527252;23;20135;-79
2022/08/26 09:48:52;;;;;;;10.27;2.38;;;;;;;23.42;50.57;101879.84;4900987;29;20055;-79
2022/08/26 09:51:25;;;;;;;9.00;2.28;;;;;;;23.43;50.20;101886.88;4901260;29;20040;-78
2022/08/26 09:53:54;;;;;;;7.55;2.38;;;;;;;23.37;50.44;101881.72;4900510;29;20048;-78
2022/08/26 09:56:26;;;;;;;13.52;2.22;;;;;;;23.40;50.21;101876.38;4902073;29;20052;-79
2022/08/26 09:58:53;;;;;;;8.90;2.37;;;;;;;23.44;50.12;101869.34;4915572;29;20059;-79
2022/08/26 10:04:04;;;;;;;;;;;;;;;23.57;49.73;101863.81;4912466;29;20058;-79
2022/08/26 10:06:33;;;;;;;5.97;2.28;;;;;;;23.57;49.50;101866.44;4897341;29;19950;-79
2022/08/26 10:09:00;;;;;;;10.65;2.67;;;;;;;23.43;49.11;101873.72;4896964;29;20052;-79
2022/08/26 10:14:38;;;;;;;12.27;3.08;;;;;;;23.30;49.43;101872.19;4889020;29;20062;-78
2022/08/26 10:17:16;;;;;;;12.88;3.70;;;;;;;23.28;49.29;101866.97;4889506;29;20080;-78
2022/08/26 10:20:17;;;;;;;13.10;3.85;;;;;;;23.37;49.39;101881.72;4896371;29;20052;-78
2022/08/26 10:22:50;;;;;;;14.00;3.05;;;;;;;23.41;48.96;101873.75;4893423;29;20047;-78
2022/08/26 10:25:37;;;;;;;11.75;2.70;;;;;;;23.46;48.93;101867.56;4899329;29;20056;-78
2022/08/26 10:31:25;;;;;;;8.23;2.40;;;;;;;23.41;49.08;101865.00;4914053;29;20055;-77
2022/08/26 10:33:51;;;;;;;10.88;2.40;;;;;;;23.52;48.95;101862.19;4896202;29;20055;-78
2022/08/26 10:39:06;;;;;;;9.27;2.50;;;;;;;23.80;48.29;101873.94;4913255;29;20055;-78
2022/08/26 10:41:36;;;;;;;9.00;2.67;;;;;;;23.81;48.32;101874.81;4898343;29;20052;-78
2022/08/26 10:44:06;;;;;;;8.45;2.25;;;;;;;23.85;48.21;101871.22;4881714;29;20048;-77
2022/08/26 10:49:08;;;;;;;8.07;2.00;;;;;;;23.95;48.13;101870.16;4915873;29;20771;-77
2022/08/26 10:51:40;;;;;;;10.93;2.10;;;;;;;23.95;48.32;101871.88;4918882;29;20060;-77
2022/08/26 11:06:46;;;;;;;8.90;2.20;;;;;;;24.08;47.41;101877.78;5942409;23;20202;31
2022/08/26 11:12:02;;;;;;;11.45;1.92;;;;;;;24.05;47.43;101869.97;4877803;29;20099;-78
2022/08/26 11:14:32;;;;;;;8.15;2.05;;;;;;;24.09;47.20;101869.84;4863358;29;20041;-78
2022/08/26 11:16:58;;;;;;;9.50;2.13;;;;;;;24.19;47.15;101871.41;4891606;29;20053;-77
2022/08/26 11:19:30;;;;;;;12.30;2.75;;;;;;;24.12;46.97;101874.19;4862040;29;20048;-79
2022/08/26 11:22:08;;;;;;;10.60;2.60;;;;;;;24.10;47.34;101862.81;4882234;29;20052;-78
2022/08/26 11:27:02;;;;;;;12.63;2.65;;;;;;;23.99;47.57;101870.94;4882092;29;20053;-78
2022/08/26 11:32:02;;;;;;;9.65;2.38;;;;;;;24.11;47.21;101878.59;4881898;29;20783;-78
2022/08/26 11:37:11;;;;;;;9.50;2.35;;;;;;;24.17;47.23;101888.09;4881720;29;20053;-77
2022/08/26 11:39:53;;;;;;;10.32;2.47;;;;;;;24.00;46.74;101880.56;4896920;29;20049;-79
2022/08/26 11:42:27;;;;;;;11.10;2.30;;;;;;;24.06;46.88;101879.56;4863514;29;20047;-78
2022/08/26 11:44:56;;;;;;;9.15;2.20;;;;;;;24.08;46.38;101883.03;4887919;29;20049;-78
2022/08/26 11:47:29;;;;;;;10.27;2.42;;;;;;;23.92;46.71;101887.72;4874388;29;20055;-78
2022/08/26 11:50:12;;;;;;;13.35;2.30;;;;;;;23.96;47.16;101881.53;4891254;29;20081;-78
2022/08/26 11:52:38;;;;;;;11.48;2.20;;;;;;;24.01;47.11;101879.66;4912775;29;20080;-79
2022/08/26 11:55:13;;;;;;;9.77;2.10;;;;;;;24.12;46.91;101876.81;4893319;29;20056;-78
2022/08/26 11:57:43;;;;;;;7.18;2.10;;;;;;;24.10;46.79;101881.25;4892619;29;20115;-78
2022/08/26 12:00:13;;;;;;;7.43;1.85;;;;;;;24.05;46.93;101876.06;4891934;29;20048;-78
2022/08/26 12:02:39;;;;;;;8.25;1.95;;;;;;;24.05;47.29;101876.06;4895594;29;20044;-78
2022/08/26 12:05:07;;;;;;;6.43;2.20;;;;;;;24.03;46.96;101872.59;4894341;29;20060;-77
2022/08/26 12:07:32;;;;;;;9.18;2.20;;;;;;;24.05;47.05;101873.44;4926233;29;20044;-79
2022/08/26 12:10:00;;;;;;;7.47;1.88;;;;;;;24.07;47.17;101870.78;4907529;29;20070;-77
2022/08/26 12:12:31;;;;;;;10.68;2.05;;;;;;;24.04;47.17;101874.34;4908973;29;20052;-77
2022/08/26 12:15:18;;;;;;;12.65;2.03;;;;;;;24.07;47.29;101878.69;4923653;29;20985;-78
2022/08/26 12:17:45;;;;;;;8.27;1.98;;;;;;;24.08;47.10;101872.50;4921543;29;20083;-78
2022/08/26 12:23:03;;;;;;;7.65;1.77;;;;;;;24.12;46.72;101871.56;4903646;29;20057;-77
2022/08/26 12:25:30;;;;;;;7.15;2.00;;;;;;;24.11;46.80;101872.47;4882211;29;20045;-76
2022/08/26 12:28:02;;;;;;;9.70;2.00;;;;;;;24.17;46.56;101870.56;4912033;29;20067;-77
2022/08/26 12:30:28;;;;;;;8.13;1.90;;;;;;;24.15;46.29;101868.84;4916574;29;20503;-78
2022/08/26 12:33:07;;;;;;;10.98;2.13;;;;;;;24.20;45.94;101877.53;4880783;29;20063;-78
2022/08/26 12:35:34;;;;;;;8.10;1.85;;;;;;;24.13;46.38;101876.78;4898935;29;20051;-78
2022/08/26 12:38:00;;;;;;;8.43;1.98;;;;;;;24.05;46.58;101876.06;4897593;29;20112;-77
2022/08/26 12:43:05;;;;;;;7.90;1.60;;;;;;;24.29;46.30;101881.72;4896054;29;20052;-77
2022/08/26 12:45:37;;;;;;;9.50;2.00;;;;;;;24.30;45.93;101873.81;4872707;29;20059;-77
2022/08/26 12:48:12;;;;;;;7.60;1.75;;;;;;;24.35;45.94;101879.84;4880800;29;20066;-77
2022/08/26 12:50:47;;;;;;;5.72;1.75;;;;;;;24.37;45.92;101879.81;4889636;29;20051;-77
2022/08/26 12:53:19;;;;;;;9.05;2.20;;;;;;;24.37;45.77;101879.81;4885823;29;20084;-77
2022/08/26 12:55:53;;;;;;;6.75;1.75;;;;;;;24.17;45.86;101881.09;4898662;29;20052;-77
2022/08/26 12:58:21;;;;;;;6.95;1.85;;;;;;;24.26;45.57;101881.78;4904690;29;20076;-77
2022/08/26 13:00:57;;;;;;;8.20;2.05;;;;;;;24.27;45.35;101884.38;4918576;29;20075;-77
2022/08/26 13:03:33;;;;;;;8.15;2.00;;;;;;;24.29;45.53;101887.84;4904576;29;20092;-78
2022/08/26 13:06:07;;;;;;;10.50;1.95;;;;;;;24.21;45.91;101889.75;4857918;29;1292594;-77
2022/08/26 13:08:34;;;;;;;8.98;2.10;;;;;;;24.20;45.59;101881.00;4903008;29;20044;-77
2022/08/26 13:11:11;;;;;;;8.18;1.80;;;;;;;24.19;45.67;101886.28;4903560;29;21182;-78
2022/08/26 13:16:02;;;;;;;12.30;2.40;;;;;;;23.99;45.56;101887.56;4924210;29;20111;-77
2022/08/26 13:18:28;;;;;;;7.82;2.13;;;;;;;24.09;46.08;101883.00;4908003;29;20063;-77
2022/08/26 13:20:56;;;;;;;7.07;2.50;;;;;;;24.16;45.98;101883.75;4889445;29;20084;-77
2022/08/26 13:23:22;;;;;;;6.85;2.40;;;;;;;24.20;45.67;101891.53;4907348;29;20066;-77
2022/08/26 13:25:49;;;;;;;9.52;2.45;;;;;;;24.17;46.00;101891.63;4922285;29;20060;-77
2022/08/26 13:28:15;;;;;;;7.13;2.15;;;;;;;24.22;45.70;101876.59;4924523;29;20372;-77
2022/08/26 13:30:46;;;;;;;8.43;2.58;;;;;;;24.22;45.31;101883.63;4923476;29;20120;-78
2022/08/26 13:33:15;;;;;;;8.98;2.55;;;;;;;24.23;45.55;101882.72;4922274;29;20482;-77
2022/08/26 13:35:42;;;;;;;7.65;2.00;;;;;;;24.25;45.02;101885.31;4904613;29;20072;-78
2022/08/26 13:38:13;;;;;;;6.57;2.00;;;;;;;24.24;45.34;101887.09;4921839;29;20510;-78
2022/08/26 13:40:42;;;;;;;8.98;2.00;;;;;;;24.20;45.19;101888.03;4921884;29;20047;-78
2022/08/26 13:43:09;;;;;;;6.13;2.05;;;;;;;24.22;44.77;101876.59;4903965;29;20491;-79
2022/08/26 13:45:36;;;;;;;7.00;2.15;;;;;;;24.28;44.77;101886.13;4920138;29;20506;-78
2022/08/26 13:48:03;;;;;;;8.32;2.33;;;;;;;24.28;44.60;101883.50;4900123;29;20135;-77
2022/08/26 13:50:28;;;;;;;4.97;2.00;;;;;;;24.30;44.30;101876.44;4893338;29;20058;-77
2022/08/26 13:52:56;;;;;;;6.18;2.10;;;;;;;24.25;44.25;101886.19;4898927;29;20060;-77
2022/08/26 13:55:22;;;;;;;5.82;2.13;;;;;;;24.32;44.24;101873.75;4902087;29;20048;-77
2022/08/26 13:57:47;;;;;;;7.55;2.15;;;;;;;24.32;44.31;101871.97;4886623;29;20142;-77
2022/08/26 14:00:14;;;;;;;7.60;2.40;;;;;;;24.35;44.23;101876.34;4889251;29;20480;-77
2022/08/26 14:02:39;;;;;;;7.85;2.38;;;;;;;24.28;44.55;101870.34;4904702;29;20107;-78
2022/08/26 14:05:07;;;;;;;9.05;2.35;;;;;;;24.33;44.51;101876.38;4878751;29;20048;-77
2022/08/26 14:07:32;;;;;;;8.20;2.30;;;;;;;24.36;44.30;101878.06;4886937;29;20059;-78
2022/08/26 14:10:00;;;;;;;10.90;2.47;;;;;;;24.32;44.27;101873.75;4917442;29;20060;-77
2022/08/26 14:12:26;;;;;;;6.82;1.90;;;;;;;24.37;44.12;101866.66;4903906;29;20491;-78
2022/08/26 14:14:51;;;;;;;6.80;2.08;;;;;;;24.41;43.98;101865.66;4901708;29;20056;-78
2022/08/26 14:17:20;;;;;;;10.73;2.45;;;;;;;24.36;43.78;101870.16;4919141;29;20052;-78
2022/08/26 14:19:48;;;;;;;6.82;2.10;;;;;;;24.33;44.09;101870.25;4884882;29;20149;-77
2022/08/26 14:22:16;;;;;;;8.13;2.20;;;;;;;24.30;44.18;101862.41;4902994;29;20071;-78
2022/08/26 14:24:41;;;;;;;12.27;2.38;;;;;;;24.37;43.96;101872.78;4924400;29;20083;-78
2022/08/26 14:27:07;;;;;;;9.18;2.40;;;;;;;24.15;44.00;101864.47;4891816;29;20056;-79
2022/08/26 14:29:32;;;;;;;7.32;2.25;;;;;;;24.28;43.94;101870.34;4888657;29;20063;-77
2022/08/26 14:32:01;;;;;;;9.23;2.50;;;;;;;24.26;43.92;101866.00;4886606;29;20065;-77
2022/08/26 14:34:27;;;;;;;6.85;2.00;;;;;;;24.33;43.73;101871.09;4919952;29;20056;-77
2022/08/26 14:36:52;;;;;;;7.78;2.20;;;;;;;24.31;43.44;101862.38;4908854;29;20144;-77
2022/08/26 14:39:18;;;;;;;7.65;2.08;;;;;;;24.31;43.53;101864.16;4902267;29;20052;-77
2022/08/26 14:41:50;;;;;;;9.80;2.00;;;;;;;24.32;43.45;101864.09;4902747;29;20052;-78
2022/08/26 14:44:17;;;;;;;7.43;2.37;;;;;;;24.28;43.08;101870.34;4902470;29;20075;-78
2022/08/26 14:46:46;;;;;;;7.95;2.13;;;;;;;24.26;43.15;101859.00;4871865;29;20163;-78
2022/08/26 14:49:12;;;;;;;4.00;1.73;;;;;;;24.28;43.27;101858.94;4910133;29;20055;-78
2022/08/26 14:51:39;;;;;;;7.40;2.00;;;;;;;24.30;43.20;101863.28;4920562;29;20410;-78
2022/08/26 14:54:11;;;;;;;5.95;1.92;;;;;;;24.32;43.08;101865.88;4901735;29;21643;-78
2022/08/26 15:01:29;;;;;;;9.93;2.47;;;;;;;24.45;42.80;101862.06;4922621;29;20044;-78
2022/08/26 15:03:55;;;;;;;14.13;2.20;;;;;;;24.42;42.89;101864.78;4904972;29;20068;-78
2022/08/26 15:06:25;;;;;;;13.15;2.20;;;;;;;24.46;42.71;101870.84;4924155;29;20052;-79
2022/08/26 15:08:52;;;;;;;7.30;1.80;;;;;;;24.48;42.49;101866.41;4904487;29;20116;-79
2022/08/26 15:11:18;;;;;;;4.90;1.73;;;;;;;24.52;42.32;101865.44;4896629;29;20495;-78
2022/08/26 15:13:45;;;;;;;7.45;1.90;;;;;;;24.53;42.71;101861.94;4920976;29;20084;-79
2022/08/26 15:16:10;;;;;;;9.43;1.92;;;;;;;24.52;43.37;101865.44;4903164;29;20063;-80
2022/08/26 15:18:36;;;;;;;8.13;2.03;;;;;;;24.53;42.85;101854.91;4903559;29;20048;-80
2022/08/26 15:21:03;;;;;;;5.97;1.77;;;;;;;24.55;42.51;101860.13;4903394;29;20052;-79
2022/08/26 15:23:34;;;;;;;5.25;2.08;;;;;;;24.55;42.98;101861.00;4889087;29;20055;-79
2022/08/26 15:52:08;;;;;;;5.85;2.35;;;;;;;24.54;42.77;101845.22;5176092;23;20147;-86
2022/08/26 15:54:34;;;;;;;5.80;2.20;;;;;;;24.51;43.10;101856.69;4901945;29;20073;-85
2022/08/26 21:13:34;;;;;;;5.25;1.85;;;;;;;23.48;43.84;101905.16;5328823;23;20051;-79
2022/08/26 21:16:00;;;;;;;6.25;1.88;;;;;;;23.44;43.46;101911.38;4899054;29;20060;-79
2022/08/26 21:18:25;;;;;;;6.22;1.60;;;;;;;23.44;43.33;101906.97;4900102;29;20059;-78
2022/08/26 21:20:51;;;;;;;5.60;1.90;;;;;;;23.45;43.55;101903.44;4874492;29;20048;-79
2022/08/26 21:23:17;;;;;;;4.28;1.63;;;;;;;23.47;43.51;101904.28;4884664;29;20084;-78
2022/08/26 21:25:44;;;;;;;4.97;1.92;;;;;;;23.48;43.46;101903.41;4900785;29;20385;-80
2022/08/26 21:28:09;;;;;;;4.28;1.92;;;;;;;23.48;43.72;101907.78;4901671;29;20082;-79
2022/08/26 21:33:02;;;;;;;6.45;2.00;;;;;;;23.44;43.94;101895.59;4914626;29;20751;-79
2022/08/26 21:35:28;;;;;;;4.70;1.63;;;;;;;23.51;43.60;101915.59;4885695;29;20092;-79